Time,TemperatureF,DewpointF,PressureIn,WindDirection,WindDirectionDegrees,WindSpeedMPH,WindSpeedGustMPH,Humidity,HourlyPrecipIn,Conditions,Clouds,dailyrainin,SoftwareType,DateUTC
2013-09-15 00:02:00,57.8,54.0,29.75,NW,310,10.0,-999.0,87,-99.99,,,0.00,weatherlink.com 1.10,2013-09-15 07:02:00,
2013-09-15 00:18:00,57.8,54.0,29.75,NNE,14,6.0,-999.0,87,-99.99,,,0.00,weatherlink.com 1.10,2013-09-15 07:18:00,
2013-09-15 00:32:00,57.9,54.0,29.74,North,5,7.0,-999.0,88,-99.99,,,0.00,weatherlink.com 1.10,2013-09-15 07:32:00,
2013-09-15 00:47:00,57.9,54.0,29.74,NW,325,5.0,-999.0,88,-99.99,,,0.00,weatherlink.com 1.10,2013-09-15 07:47:00,
2013-09-15 01:02:00,57.9,54.0,29.74,NNW,337,4.0,-999.0,88,-99.99,,,0.00,weatherlink.com 1.10,2013-09-15 08:02:00,
2013-09-15 01:19:00,57.9,54.0,29.74,North,355,1.0,-999.0,88,-99.99,,,0.00,weatherlink.com 1.10,2013-09-15 08:19:00,
2013-09-15 01:32:00,57.9,55.0,29.74,North,5,3.0,-999.0,89,-99.99,,,0.00,weatherlink.com 1.10,2013-09-15 08:32:00,
2013-09-15 01:47:00,57.9,55.0,29.74,North,360,2.0,-999.0,89,-99.99,,,0.00,weatherlink.com 1.10,2013-09-15 08:47:00,
2013-09-15 02:02:00,58.0,55.0,29.74,North,355,7.0,-999.0,88,-99.99,,,0.00,weatherlink.com 1.10,2013-09-15 09:02:00,
2013-09-15 02:17:00,57.8,54.0,29.75,North,351,8.0,-999.0,88,-99.99,,,0.00,weatherlink.com 1.10,2013-09-15 09:17:00,
2013-09-15 02:33:00,57.5,54.0,29.75,NNW,334,8.0,-999.0,89,-99.99,,,0.00,weatherlink.com 1.10,2013-09-15 09:33:00,
2013-09-15 02:48:00,57.4,54.0,29.75,NNW,338,12.0,-999.0,89,-99.99,,,0.00,weatherlink.com 1.10,2013-09-15 09:48:00,
2013-09-15 03:03:00,57.3,55.0,29.75,NNW,342,7.0,-999.0,90,-99.99,,,0.00,weatherlink.com 1.10,2013-09-15 10:03:00,
2013-09-15 03:18:00,57.3,55.0,29.75,NNW,333,14.0,-999.0,90,-99.99,,,0.00,weatherlink.com 1.10,2013-09-15 10:18:00,
2013-09-15 03:32:00,57.2,54.0,29.75,North,10,5.0,-999.0,90,-99.99,,,0.00,weatherlink.com 1.10,2013-09-15 10:32:00,
2013-09-15 03:48:00,57.3,54.0,29.75,NW,309,11.0,-999.0,89,-99.99,,,0.00,weatherlink.com 1.10,2013-09-15 10:48:00,
2013-09-15 04:03:00,57.4,54.0,29.75,NNW,346,5.0,-999.0,89,-99.99,,,0.00,weatherlink.com 1.10,2013-09-15 11:03:00,
2013-09-15 04:17:00,57.5,54.0,29.75,North,5,7.0,-999.0,88,-99.99,,,0.00,weatherlink.com 1.10,2013-09-15 11:17:00,
2013-09-15 04:33:00,57.4,54.0,29.75,North,350,2.0,-999.0,88,-99.99,,,0.00,weatherlink.com 1.10,2013-09-15 11:33:00,
2013-09-15 04:48:00,57.3,54.0,29.75,North,350,4.0,-999.0,88,-99.99,,,0.00,weatherlink.com 1.10,2013-09-15 11:48:00,
2013-09-15 05:03:00,57.4,54.0,29.75,NNE,23,5.0,-999.0,88,-99.99,,,0.00,weatherlink.com 1.10,2013-09-15 12:03:00,
2013-09-15 05:18:00,57.5,54.0,29.75,NNE,23,8.0,-999.0,87,-99.99,,,0.00,weatherlink.com 1.10,2013-09-15 12:18:00,
2013-09-15 05:32:00,57.6,54.0,29.75,North,5,5.0,-999.0,87,-99.99,,,0.00,weatherlink.com 1.10,2013-09-15 12:32:00,
2013-09-15 05:47:00,57.8,54.0,29.75,North,355,3.0,-999.0,86,-99.99,,,0.00,weatherlink.com 1.10,2013-09-15 12:47:00,
2013-09-15 06:03:00,57.9,54.0,29.75,NE,49,3.0,-999.0,86,-99.99,,,0.00,weatherlink.com 1.10,2013-09-15 13:03:00,
2013-09-15 06:17:00,58.0,54.0,29.76,NNW,344,0.0,-999.0,85,-99.99,,,0.00,weatherlink.com 1.10,2013-09-15 13:17:00,
2013-09-15 06:33:00,58.0,54.0,29.76,NE,34,2.0,-999.0,85,-99.99,,,0.00,weatherlink.com 1.10,2013-09-15 13:33:00,
2013-09-15 06:48:00,57.7,53.0,29.75,NE,40,7.0,-999.0,85,-99.99,,,0.00,weatherlink.com 1.10,2013-09-15 13:48:00,
2013-09-15 07:03:00,57.1,53.0,29.76,NNW,346,7.0,-999.0,85,-99.99,,,0.00,weatherlink.com 1.10,2013-09-15 14:03:00,
2013-09-15 07:18:00,56.8,53.0,29.77,NNE,25,3.0,-999.0,86,-99.99,,,0.00,weatherlink.com 1.10,2013-09-15 14:18:00,
2013-09-15 07:32:00,56.3,52.0,29.76,NE,40,4.0,-999.0,86,-99.99,,,0.00,weatherlink.com 1.10,2013-09-15 14:32:00,
2013-09-15 07:47:00,56.1,52.0,29.76,NNE,27,1.0,-999.0,87,-99.99,,,0.00,weatherlink.com 1.10,2013-09-15 14:47:00,
2013-09-15 08:03:00,56.2,53.0,29.76,NNE,13,0.0,-999.0,88,-99.99,,,0.00,weatherlink.com 1.10,2013-09-15 15:03:00,
2013-09-15 08:17:00,56.9,54.0,29.75,NNE,13,0.0,-999.0,89,-99.99,,,0.00,weatherlink.com 1.10,2013-09-15 15:17:00,
2013-09-15 08:33:00,58.7,55.0,29.76,North,351,1.0,-999.0,88,-99.99,,,0.00,weatherlink.com 1.10,2013-09-15 15:33:00,
2013-09-15 08:48:00,60.6,56.0,29.75,North,351,1.0,-999.0,84,-99.99,,,0.00,weatherlink.com 1.10,2013-09-15 15:48:00,
2013-09-15 09:03:00,62.0,55.0,29.76,WSW,249,3.0,-999.0,79,-99.99,,,0.00,weatherlink.com 1.10,2013-09-15 16:03:00,
2013-09-15 09:18:00,62.8,56.0,29.76,WSW,249,0.0,-999.0,78,-99.99,,,0.00,weatherlink.com 1.10,2013-09-15 16:18:00,
2013-09-15 09:33:00,65.6,58.0,29.76,WSW,249,0.0,-999.0,75,-99.99,,,0.00,weatherlink.com 1.10,2013-09-15 16:33:00,
2013-09-15 09:48:00,64.2,56.0,29.77,WSW,250,2.0,-999.0,74,-99.99,,,0.00,weatherlink.com 1.10,2013-09-15 16:48:00,
2013-09-15 10:02:00,65.3,56.0,29.78,WSW,255,3.0,-999.0,72,-99.99,,,0.00,weatherlink.com 1.10,2013-09-15 17:02:00,
2013-09-15 10:17:00,64.0,56.0,29.79,NW,309,1.0,-999.0,74,-99.99,,,0.00,weatherlink.com 1.10,2013-09-15 17:17:00,
2013-09-15 10:33:00,64.6,56.0,29.79,WSW,246,3.0,-999.0,73,-99.99,,,0.00,weatherlink.com 1.10,2013-09-15 17:33:00,
2013-09-15 10:48:00,64.0,56.0,29.80,West,263,3.0,-999.0,74,-99.99,,,0.00,weatherlink.com 1.10,2013-09-15 17:48:00,
2013-09-15 11:03:00,63.7,56.0,29.81,West,260,4.0,-999.0,75,-99.99,,,0.00,weatherlink.com 1.10,2013-09-15 18:03:00,
2013-09-15 11:18:00,63.8,56.0,29.81,WNW,298,0.0,-999.0,76,-99.99,,,0.00,weatherlink.com 1.10,2013-09-15 18:18:00,
2013-09-15 11:33:00,64.1,56.0,29.81,NW,307,6.0,-999.0,75,-99.99,,,0.00,weatherlink.com 1.10,2013-09-15 18:33:00,
2013-09-15 11:47:00,65.0,57.0,29.81,WNW,283,8.0,-999.0,74,-99.99,,,0.00,weatherlink.com 1.10,2013-09-15 18:47:00,
2013-09-15 12:02:00,64.5,56.0,29.82,WNW,292,7.0,-999.0,74,-99.99,,,0.00,weatherlink.com 1.10,2013-09-15 19:02:00,
2013-09-15 12:18:00,63.8,56.0,29.82,NW,314,6.0,-999.0,76,-99.99,,,0.00,weatherlink.com 1.10,2013-09-15 19:18:00,
2013-09-15 12:33:00,64.1,56.0,29.81,NW,315,5.0,-999.0,75,-99.99,,,0.00,weatherlink.com 1.10,2013-09-15 19:33:00,
2013-09-15 12:48:00,65.8,57.0,29.81,NW,307,7.0,-999.0,72,-99.99,,,0.00,weatherlink.com 1.10,2013-09-15 19:48:00,
2013-09-15 13:03:00,66.0,56.0,29.81,WNW,296,6.0,-999.0,71,-99.99,,,0.00,weatherlink.com 1.10,2013-09-15 20:03:00,
2013-09-15 13:18:00,67.4,57.0,29.81,WNW,289,6.0,-999.0,69,-99.99,,,0.00,weatherlink.com 1.10,2013-09-15 20:18:00,
2013-09-15 13:32:00,66.9,56.0,29.81,WNW,299,8.0,-999.0,68,-99.99,,,0.00,weatherlink.com 1.10,2013-09-15 20:32:00,
2013-09-15 13:47:00,65.7,56.0,29.81,NNW,341,8.0,-999.0,71,-99.99,,,0.00,weatherlink.com 1.10,2013-09-15 20:47:00,
2013-09-15 14:03:00,67.9,57.0,29.81,NW,311,4.0,-999.0,68,-99.99,,,0.00,weatherlink.com 1.10,2013-09-15 21:03:00,
2013-09-15 14:18:00,69.4,57.0,29.81,NW,305,3.0,-999.0,66,-99.99,,,0.00,weatherlink.com 1.10,2013-09-15 21:18:00,
2013-09-15 14:33:00,68.8,56.0,29.81,WNW,303,5.0,-999.0,65,-99.99,,,0.00,weatherlink.com 1.10,2013-09-15 21:33:00,
2013-09-15 14:48:00,66.3,56.0,29.81,NW,323,3.0,-999.0,69,-99.99,,,0.00,weatherlink.com 1.10,2013-09-15 21:48:00,
2013-09-15 15:03:00,66.8,56.0,29.81,North,360,6.0,-999.0,69,-99.99,,,0.00,weatherlink.com 1.10,2013-09-15 22:03:00,
2013-09-15 15:18:00,68.5,57.0,29.80,NW,306,2.0,-999.0,66,-99.99,,,0.00,weatherlink.com 1.10,2013-09-15 22:18:00,
2013-09-15 15:32:00,68.1,57.0,29.80,West,273,4.0,-999.0,67,-99.99,,,0.00,weatherlink.com 1.10,2013-09-15 22:32:00,
2013-09-15 15:47:00,68.5,57.0,29.80,WNW,284,5.0,-999.0,66,-99.99,,,0.00,weatherlink.com 1.10,2013-09-15 22:47:00,
2013-09-15 16:03:00,67.5,57.0,29.80,NNE,13,1.0,-999.0,69,-99.99,,,0.00,weatherlink.com 1.10,2013-09-15 23:03:00,
2013-09-15 16:18:00,70.7,58.0,29.80,WSW,257,3.0,-999.0,64,-99.99,,,0.00,weatherlink.com 1.10,2013-09-15 23:18:00,
2013-09-15 16:32:00,68.7,57.0,29.79,WNW,288,2.0,-999.0,67,-99.99,,,0.00,weatherlink.com 1.10,2013-09-15 23:32:00,
2013-09-15 16:47:00,68.8,57.0,29.79,West,279,2.0,-999.0,66,-99.99,,,0.00,weatherlink.com 1.10,2013-09-15 23:47:00,
2013-09-15 17:02:00,67.3,56.0,29.79,WNW,284,3.0,-999.0,68,-99.99,,,0.00,weatherlink.com 1.10,2013-09-16 00:02:00,
2013-09-15 17:17:00,68.0,57.0,29.79,WNW,292,4.0,-999.0,68,-99.99,,,0.00,weatherlink.com 1.10,2013-09-16 00:17:00,
2013-09-15 17:32:00,68.0,57.0,29.79,WNW,292,1.0,-999.0,67,-99.99,,,0.00,weatherlink.com 1.10,2013-09-16 00:32:00,
2013-09-15 17:48:00,68.1,57.0,29.79,NW,309,6.0,-999.0,68,-99.99,,,0.00,weatherlink.com 1.10,2013-09-16 00:48:00,
2013-09-15 18:02:00,66.9,56.0,29.80,NNW,335,6.0,-999.0,69,-99.99,,,0.00,weatherlink.com 1.10,2013-09-16 01:02:00,
2013-09-15 18:18:00,64.4,55.0,29.80,North,355,2.0,-999.0,72,-99.99,,,0.00,weatherlink.com 1.10,2013-09-16 01:18:00,
2013-09-15 18:33:00,64.0,56.0,29.80,North,355,3.0,-999.0,74,-99.99,,,0.00,weatherlink.com 1.10,2013-09-16 01:33:00,
2013-09-15 18:47:00,64.2,56.0,29.80,NNE,17,3.0,-999.0,74,-99.99,,,0.00,weatherlink.com 1.10,2013-09-16 01:47:00,
2013-09-15 19:03:00,63.7,56.0,29.80,North,350,4.0,-999.0,76,-99.99,,,0.00,weatherlink.com 1.10,2013-09-16 02:03:00,
2013-09-15 19:18:00,63.3,56.0,29.80,North,355,0.0,-999.0,77,-99.99,,,0.00,weatherlink.com 1.10,2013-09-16 02:18:00,
2013-09-15 19:33:00,63.3,56.0,29.80,NNW,346,2.0,-999.0,77,-99.99,,,0.00,weatherlink.com 1.10,2013-09-16 02:33:00,
2013-09-15 19:48:00,62.9,56.0,29.80,NNW,331,4.0,-999.0,77,-99.99,,,0.00,weatherlink.com 1.10,2013-09-16 02:48:00,
2013-09-15 20:03:00,62.6,55.0,29.80,North,349,4.0,-999.0,77,-99.99,,,0.00,weatherlink.com 1.10,2013-09-16 03:03:00,
2013-09-15 20:17:00,62.8,56.0,29.80,North,355,0.0,-999.0,79,-99.99,,,0.00,weatherlink.com 1.10,2013-09-16 03:17:00,
2013-09-15 20:33:00,62.4,56.0,29.81,North,351,4.0,-999.0,79,-99.99,,,0.00,weatherlink.com 1.10,2013-09-16 03:33:00,
2013-09-15 20:47:00,62.3,56.0,29.81,North,360,2.0,-999.0,81,-99.99,,,0.00,weatherlink.com 1.10,2013-09-16 03:47:00,
2013-09-15 21:03:00,62.2,57.0,29.81,NW,321,5.0,-999.0,82,-99.99,,,0.00,weatherlink.com 1.10,2013-09-16 04:03:00,
2013-09-15 21:17:00,61.8,56.0,29.81,North,9,0.0,-999.0,81,-99.99,,,0.00,weatherlink.com 1.10,2013-09-16 04:17:00,
2013-09-15 21:32:00,61.2,55.0,29.82,North,5,1.0,-999.0,81,-99.99,,,0.00,weatherlink.com 1.10,2013-09-16 04:32:00,
2013-09-15 21:47:00,60.4,55.0,29.82,North,355,3.0,-999.0,83,-99.99,,,0.00,weatherlink.com 1.10,2013-09-16 04:47:00,
2013-09-15 22:02:00,59.8,55.0,29.81,North,5,1.0,-999.0,84,-99.99,,,0.00,weatherlink.com 1.10,2013-09-16 05:02:00,
2013-09-15 22:17:00,59.5,55.0,29.81,North,355,0.0,-999.0,85,-99.99,,,0.00,weatherlink.com 1.10,2013-09-16 05:17:00,
2013-09-15 22:32:00,59.0,55.0,29.81,NNE,14,2.0,-999.0,86,-99.99,,,0.00,weatherlink.com 1.10,2013-09-16 05:32:00,
2013-09-15 22:47:00,58.7,55.0,29.82,NNE,19,1.0,-999.0,86,-99.99,,,0.00,weatherlink.com 1.10,2013-09-16 05:47:00,
2013-09-15 23:02:00,58.3,55.0,29.82,NNE,23,2.0,-999.0,87,-99.99,,,0.00,weatherlink.com 1.10,2013-09-16 06:02:00,
2013-09-15 23:17:00,58.0,55.0,29.82,North,9,2.0,-999.0,88,-99.99,,,0.00,weatherlink.com 1.10,2013-09-16 06:17:00,
2013-09-15 23:32:00,57.9,54.0,29.81,NNE,32,3.0,-999.0,88,-99.99,,,0.00,weatherlink.com 1.10,2013-09-16 06:32:00,
2013-09-15 23:47:00,57.8,55.0,29.81,NNE,33,2.0,-999.0,89,-99.99,,,0.00,weatherlink.com 1.10,2013-09-16 06:47:00,